createdAt,value
2018-03-04T00:00:03.394Z,0.35
2018-03-04T00:01:04.814Z,0.34
2018-03-04T00:02:05.646Z,0.31
2018-03-04T00:03:06.682Z,0.35
2018-03-04T00:04:07.704Z,0.32
2018-03-04T00:05:08.926Z,0.35
2018-03-04T00:06:09.800Z,0.38
2018-03-04T00:07:09.691Z,0.35
2018-03-04T00:08:10.679Z,0.38
2018-03-04T00:09:13.770Z,0.37
2018-03-04T00:10:13.010Z,0.38
2018-03-04T00:11:13.408Z,0.4
2018-03-04T00:12:15.051Z,0.47
2018-03-04T00:13:15.372Z,0.45
2018-03-04T00:14:16.997Z,0.48
2018-03-04T00:15:17.662Z,0.38
2018-03-04T00:16:20.615Z,0.37
2018-03-04T00:17:22.678Z,0.25
2018-03-04T00:18:21.855Z,0.32
2018-03-04T00:19:22.697Z,0.31
2018-03-04T00:20:24.623Z,0.31
2018-03-04T00:21:24.260Z,0.32
2018-03-04T00:22:26.084Z,0.32
2018-03-04T00:23:26.609Z,0.38
2018-03-04T00:24:26.671Z,0.35
2018-03-04T00:25:28.735Z,0.35
2018-03-04T00:26:28.902Z,0.43
2018-03-04T00:27:30.027Z,0.43
2018-03-04T00:28:31.065Z,0.38
2018-03-04T00:29:31.328Z,0.38
2018-03-04T00:30:33.338Z,0.47
2018-03-04T00:31:33.901Z,0.44
2018-03-04T00:32:35.641Z,0.48
2018-03-04T00:33:37.173Z,0.38
2018-03-04T00:34:37.673Z,0.38
2018-03-04T00:35:39.594Z,0.38
2018-03-04T00:36:38.619Z,0.34
2018-03-04T00:37:40.403Z,0.32
2018-03-04T00:38:40.935Z,0.26
2018-03-04T00:39:43.647Z,0.34
2018-03-04T00:40:43.841Z,0.35
2018-03-04T00:41:45.839Z,0.38
2018-03-04T00:42:46.238Z,0.45
2018-03-04T00:43:47.021Z,0.38
2018-03-04T00:44:48.025Z,0.22
2018-03-04T00:45:49.870Z,0.31
2018-03-04T00:46:50.644Z,0.26
2018-03-04T00:47:51.403Z,0.26
2018-03-04T00:48:51.780Z,0.37
2018-03-04T00:49:53.519Z,0.32
2018-03-04T00:50:54.082Z,0.38
2018-03-04T00:51:54.372Z,0.43
2018-03-04T00:52:55.093Z,0.28
2018-03-04T00:53:56.957Z,0.43
2018-03-04T00:54:57.390Z,0.35
2018-03-04T00:55:59.143Z,0.4
2018-03-04T00:56:59.531Z,0.47
2018-03-04T00:58:01.152Z,0.43
2018-03-04T00:59:02.104Z,0.47
2018-03-04T01:00:02.655Z,0.53
2018-03-04T01:01:06.255Z,0.43
2018-03-04T01:02:06.110Z,0.45
2018-03-04T01:03:06.249Z,0.44
2018-03-04T01:04:09.167Z,0.48
2018-03-04T01:05:09.033Z,0.38
2018-03-04T01:06:10.794Z,0.38
2018-03-04T01:07:10.455Z,0.26
2018-03-04T01:08:10.690Z,0.4
2018-03-04T01:09:12.442Z,0.26
2018-03-04T01:10:12.723Z,0.35
2018-03-04T01:11:13.763Z,0.32
2018-03-04T01:12:16.113Z,0.35
2018-03-04T01:13:16.101Z,0.38
2018-03-04T01:14:17.275Z,0.41
2018-03-04T01:15:17.496Z,0.38
2018-03-04T01:16:19.426Z,0.37
2018-03-04T01:17:21.040Z,0.41
2018-03-04T01:18:21.161Z,0.4
2018-03-04T01:19:22.594Z,0.4
2018-03-04T01:20:24.384Z,0.45
2018-03-04T01:21:25.140Z,0.47
2018-03-04T01:22:25.402Z,0.47
2018-03-04T01:23:25.783Z,0.48
2018-03-04T01:24:27.854Z,0.38
2018-03-04T01:25:28.578Z,0.43
2018-03-04T01:26:29.369Z,0.48
2018-03-04T01:27:29.578Z,0.45
2018-03-04T01:28:30.628Z,0.4
2018-03-04T01:29:33.079Z,0.47
2018-03-04T01:30:32.512Z,0.43
2018-03-04T01:31:35.141Z,0.43
2018-03-04T01:32:35.854Z,0.38
2018-03-04T01:33:36.831Z,0.5
2018-03-04T01:34:39.113Z,0.48
2018-03-04T01:35:39.516Z,0.47
2018-03-04T01:36:40.123Z,0.32
2018-03-04T01:37:39.985Z,0.35
2018-03-04T01:38:42.851Z,0.35
2018-03-04T01:39:41.839Z,0.32
2018-03-04T01:40:44.099Z,0.43
2018-03-04T01:41:45.462Z,0.4
2018-03-04T01:42:44.676Z,0.38
2018-03-04T01:43:46.810Z,0.34
2018-03-04T01:44:47.842Z,0.38
2018-03-04T01:45:47.511Z,0.43
2018-03-04T01:46:50.336Z,0.38
2018-03-04T01:47:50.956Z,0.26
2018-03-04T01:48:51.832Z,0.43
2018-03-04T01:49:52.857Z,0.43
2018-03-04T01:50:54.514Z,0.35
2018-03-04T01:51:54.881Z,0.38
2018-03-04T01:52:55.737Z,0.38
2018-03-04T01:53:56.816Z,0.38
2018-03-04T01:54:57.885Z,0.26
2018-03-04T01:55:58.799Z,0.22
2018-03-04T01:56:59.676Z,0.34
2018-03-04T01:57:59.846Z,0.21
2018-03-04T01:59:01.396Z,0.23
2018-03-04T02:00:02.468Z,0.31
2018-03-04T02:01:03.532Z,0.31
2018-03-04T02:02:04.891Z,0.38
2018-03-04T02:03:05.204Z,0.35
2018-03-04T02:04:06.444Z,0.34
2018-03-04T02:05:09.053Z,0.28
2018-03-04T02:06:08.249Z,0.21
2018-03-04T02:07:11.243Z,0.31
2018-03-04T02:08:11.132Z,0.22
2018-03-04T02:09:12.881Z,0.25
2018-03-04T02:10:12.433Z,0.26
2018-03-04T02:11:15.134Z,0.43
2018-03-04T02:12:16.136Z,0.32
2018-03-04T02:13:17.505Z,0.37
2018-03-04T02:14:17.839Z,0.43
2018-03-04T02:15:18.560Z,0.38
2018-03-04T02:16:20.502Z,0.43
2018-03-04T02:17:20.399Z,0.34
2018-03-04T02:18:21.664Z,0.43
2018-03-04T02:19:21.891Z,0.37
2018-03-04T02:20:22.940Z,0.41
2018-03-04T02:21:24.965Z,0.31
2018-03-04T02:22:24.989Z,0.31
2018-03-04T02:23:27.356Z,0.21
2018-03-04T02:24:27.299Z,0.23
2018-03-04T02:25:29.047Z,0.15
2018-03-04T02:26:28.937Z,0.26
2018-03-04T02:27:31.141Z,0.15
2018-03-04T02:28:30.288Z,0.15
2018-03-04T02:29:31.969Z,0.22
2018-03-04T02:30:32.968Z,0.26
2018-03-04T02:31:34.101Z,0.26
2018-03-04T02:32:36.042Z,0.34
2018-03-04T02:33:36.655Z,0.31
2018-03-04T02:34:38.534Z,0.31
2018-03-04T02:35:37.998Z,0.26
2018-03-04T02:36:39.628Z,0.31
2018-03-04T02:37:40.923Z,0.21
2018-03-04T02:38:41.344Z,0.25
2018-03-04T02:39:42.150Z,0.28
2018-03-04T02:40:43.380Z,0.16
2018-03-04T02:41:44.082Z,0.21
2018-03-04T02:42:45.515Z,0.15
2018-03-04T02:43:45.965Z,0.29
2018-03-04T02:44:46.389Z,0.34
2018-03-04T02:45:47.974Z,0.37
2018-03-04T02:46:49.835Z,0.26
2018-03-04T02:47:51.089Z,0.37
2018-03-04T02:48:52.720Z,0.34
2018-03-04T02:49:53.083Z,0.28
2018-03-04T02:50:53.120Z,0.23
2018-03-04T02:51:54.391Z,0.31
2018-03-04T02:52:56.856Z,0.25
2018-03-04T02:53:56.487Z,0.16
2018-03-04T02:54:57.341Z,0.22
2018-03-04T02:55:58.387Z,0.21
2018-03-04T02:56:58.413Z,0.29
2018-03-04T02:58:01.129Z,0.31
2018-03-04T02:59:01.042Z,0.23
2018-03-04T03:00:02.279Z,0.22
2018-03-04T03:01:03.914Z,0.25
2018-03-04T03:02:03.980Z,0.22
2018-03-04T03:03:05.315Z,0.31
2018-03-04T03:04:06.027Z,0.26
2018-03-04T03:05:08.811Z,0.35
2018-03-04T03:06:08.678Z,0.23
2018-03-04T03:07:10.001Z,0.25
2018-03-04T03:08:11.398Z,0.31
2018-03-04T03:09:11.964Z,0.31
2018-03-04T03:10:13.006Z,0.28
2018-03-04T03:11:13.309Z,0.29
2018-03-04T03:12:15.146Z,0.25
2018-03-04T03:13:16.468Z,0.29
2018-03-04T03:14:17.202Z,0.31
2018-03-04T03:15:16.512Z,0.44
2018-03-04T03:16:20.098Z,0.43
2018-03-04T03:17:19.220Z,0.48
2018-03-04T03:18:21.549Z,0.45
2018-03-04T03:19:23.269Z,0.4
2018-03-04T03:20:22.255Z,0.4
2018-03-04T03:21:23.017Z,0.31
2018-03-04T03:22:24.966Z,0.32
2018-03-04T03:23:25.460Z,0.35
2018-03-04T03:24:26.018Z,0.31
2018-03-04T03:25:27.620Z,0.31
2018-03-04T03:26:27.674Z,0.31
2018-03-04T03:27:29.454Z,0.37
2018-03-04T03:28:30.875Z,0.41
2018-03-04T03:29:31.997Z,0.4
2018-03-04T03:30:32.904Z,0.37
2018-03-04T03:31:32.394Z,0.26
2018-03-04T03:32:34.723Z,0.31
2018-03-04T03:33:36.009Z,0.34
2018-03-04T03:34:36.144Z,0.26
2018-03-04T03:35:37.078Z,0.22
2018-03-04T03:36:38.075Z,0.43
2018-03-04T03:37:40.720Z,0.34
2018-03-04T03:38:40.300Z,0.31
2018-03-04T03:39:41.100Z,0.34
2018-03-04T03:40:42.686Z,0.32
2018-03-04T03:41:44.622Z,0.34
2018-03-04T03:42:44.334Z,0.41
2018-03-04T03:43:45.930Z,0.43
2018-03-04T03:44:47.229Z,0.38
2018-03-04T03:45:47.548Z,0.37
2018-03-04T03:46:47.716Z,0.35
2018-03-04T03:47:49.868Z,0.32
2018-03-04T03:48:49.829Z,0.43
2018-03-04T03:49:50.759Z,0.35
2018-03-04T03:50:51.381Z,0.43
2018-03-04T03:51:53.361Z,0.43
2018-03-04T03:52:55.451Z,0.21
2018-03-04T03:53:56.383Z,0.13
2018-03-04T03:54:57.206Z,0.31
2018-03-04T03:55:57.797Z,0.31
2018-03-04T03:56:58.513Z,0.29
2018-03-04T03:57:59.745Z,0.31
2018-03-04T03:59:00.752Z,0.26
2018-03-04T04:00:02.393Z,0.12
2018-03-04T04:01:01.741Z,0.13
2018-03-04T04:02:04.086Z,0.13
2018-03-04T04:03:03.823Z,0.25
2018-03-04T04:04:05.660Z,0.15
2018-03-04T04:05:05.727Z,0.18
2018-03-04T04:06:06.506Z,0.19
2018-03-04T04:07:09.413Z,0.15
2018-03-04T04:08:09.835Z,0.04
2018-03-04T04:09:11.036Z,0.09
2018-03-04T04:10:11.794Z,0.19
2018-03-04T04:11:13.063Z,0.12
2018-03-04T04:12:12.838Z,0.15
2018-03-04T04:13:14.381Z,0.22
2018-03-04T04:14:16.091Z,0.15
2018-03-04T04:15:15.730Z,0.32
2018-03-04T04:16:18.117Z,0.23
2018-03-04T04:17:18.158Z,0.15
2018-03-04T04:18:19.034Z,0.22
2018-03-04T04:19:20.483Z,0.25
2018-03-04T04:20:21.061Z,0.15
2018-03-04T04:21:21.763Z,0.15
2018-03-04T04:22:22.608Z,0.25
2018-03-04T04:23:23.452Z,0.25
2018-03-04T04:24:24.912Z,0.29
2018-03-04T04:25:25.591Z,0.25
2018-03-04T04:26:26.830Z,0.25
2018-03-04T04:27:28.325Z,0.25
2018-03-04T04:28:29.365Z,0.21
2018-03-04T04:29:31.918Z,0.25
2018-03-04T04:30:31.167Z,0.26
2018-03-04T04:31:31.767Z,0.43
2018-03-04T04:32:32.930Z,0.34
2018-03-04T04:33:35.891Z,0.41
2018-03-04T04:34:35.259Z,0.35
2018-03-04T04:35:36.759Z,0.38
2018-03-04T04:36:36.468Z,0.43
2018-03-04T04:37:37.528Z,0.38
2018-03-04T04:38:39.533Z,0.43
2018-03-04T04:39:39.803Z,0.26
2018-03-04T04:40:40.448Z,0.31
2018-03-04T04:41:42.188Z,0.28
2018-03-04T04:42:43.751Z,0.22
2018-03-04T04:43:45.506Z,0.21
2018-03-04T04:44:46.136Z,0.31
2018-03-04T04:45:47.523Z,0.26
2018-03-04T04:46:46.710Z,0.31
2018-03-04T04:47:48.732Z,0.32
2018-03-04T04:48:50.995Z,0.43
2018-03-04T04:49:50.125Z,0.31
2018-03-04T04:50:51.995Z,0.34
2018-03-04T04:51:52.655Z,0.31
2018-03-04T04:52:53.747Z,0.32
2018-03-04T04:53:54.160Z,0.34
2018-03-04T04:54:55.130Z,0.43
2018-03-04T04:55:57.129Z,0.47
2018-03-04T04:56:57.974Z,0.47
2018-03-04T04:57:58.782Z,0.38
2018-03-04T04:59:00.413Z,0.35
2018-03-04T05:00:01.019Z,0.43
2018-03-04T05:01:01.101Z,0.4
2018-03-04T05:02:02.516Z,0.47
2018-03-04T05:03:04.389Z,0.43
2018-03-04T05:04:05.616Z,0.38
2018-03-04T05:05:06.892Z,0.4
2018-03-04T05:06:05.857Z,0.38
2018-03-04T05:07:07.261Z,0.41
2018-03-04T05:08:08.506Z,0.41
2018-03-04T05:09:09.289Z,0.31
2018-03-04T05:10:10.614Z,0.21
2018-03-04T05:11:11.171Z,0.26
2018-03-04T05:12:11.961Z,0.26
2018-03-04T05:13:14.058Z,0.32
2018-03-04T05:14:13.933Z,0.26
2018-03-04T05:15:15.373Z,0.29
2018-03-04T05:16:15.666Z,0.31
2018-03-04T05:17:17.990Z,0.31
2018-03-04T05:18:19.406Z,0.23
2018-03-04T05:19:53.767Z,0.31
2018-03-04T05:20:21.615Z,0.26
2018-03-04T05:21:22.536Z,0.31
2018-03-04T05:22:22.473Z,0.26
2018-03-04T05:23:23.889Z,0.25
2018-03-04T05:24:24.442Z,0.31
2018-03-04T05:25:25.707Z,0.28
2018-03-04T05:26:25.835Z,0.26
2018-03-04T05:27:27.219Z,0.28
2018-03-04T05:28:29.770Z,0.41
2018-03-04T05:29:30.103Z,0.47
2018-03-04T05:30:30.511Z,0.26
2018-03-04T05:31:31.339Z,0.35
2018-03-04T05:32:33.102Z,0.26
2018-03-04T05:33:33.454Z,0.35
2018-03-04T05:34:33.508Z,0.4
2018-03-04T05:35:35.783Z,0.43
2018-03-04T05:36:36.802Z,0.32
2018-03-04T05:37:37.953Z,0.34
2018-03-04T05:38:38.823Z,0.43
2018-03-04T05:39:39.867Z,0.38
2018-03-04T05:40:42.256Z,0.38
2018-03-04T05:41:40.914Z,0.43
2018-03-04T05:42:42.852Z,0.43
2018-03-04T05:43:44.413Z,0.54
2018-03-04T05:44:44.729Z,0.5
2018-03-04T05:45:46.710Z,0.38
2018-03-04T05:46:46.396Z,0.41
2018-03-04T05:47:47.274Z,0.43
2018-03-04T05:48:47.685Z,0.26
2018-03-04T05:49:50.901Z,0.28
2018-03-04T05:50:49.989Z,0.43
2018-03-04T05:51:50.269Z,0.28
2018-03-04T05:52:51.541Z,0.34
2018-03-04T05:53:53.835Z,0.29
2018-03-04T05:54:53.337Z,0.25
2018-03-04T05:55:54.779Z,0.19
2018-03-04T05:56:56.404Z,0.19
2018-03-04T05:57:58.365Z,0.15
2018-03-04T05:58:58.853Z,0.19
2018-03-04T06:00:00.225Z,0.16
2018-03-04T06:01:00.704Z,0.15
2018-03-04T06:02:00.781Z,0.21
2018-03-04T06:03:03.266Z,0.28
2018-03-04T06:04:04.853Z,0.25
2018-03-04T06:05:04.723Z,0.25
2018-03-04T06:06:07.160Z,0.29
2018-03-04T06:07:06.151Z,0.43
2018-03-04T06:08:07.633Z,0.38
2018-03-04T06:09:08.163Z,0.31
2018-03-04T06:10:09.756Z,0.4
2018-03-04T06:11:10.414Z,0.43
2018-03-04T06:12:11.273Z,0.28
2018-03-04T06:13:16.351Z,0.4
2018-03-04T06:14:13.728Z,0.43
2018-03-04T06:15:14.436Z,0.41
2018-03-04T06:16:15.887Z,0.41
2018-03-04T06:17:16.609Z,0.32
2018-03-04T06:18:17.195Z,0.38
2018-03-04T06:19:17.823Z,0.43
2018-03-04T06:20:19.257Z,0.34
2018-03-04T06:21:20.383Z,0.37
2018-03-04T06:22:21.315Z,0.34
2018-03-04T06:23:21.623Z,0.34
2018-03-04T06:24:23.283Z,0.43
2018-03-04T06:25:23.636Z,0.41
2018-03-04T06:26:25.849Z,0.45
2018-03-04T06:27:26.073Z,0.38
2018-03-04T06:28:27.853Z,0.43
2018-03-04T06:29:27.437Z,0.44
2018-03-04T06:30:29.473Z,0.38
2018-03-04T06:31:31.060Z,0.43
2018-03-04T06:32:32.795Z,0.4
2018-03-04T06:33:33.706Z,0.38
2018-03-04T06:34:34.373Z,0.45
2018-03-04T06:35:34.063Z,0.44
2018-03-04T06:36:35.908Z,0.43
2018-03-04T06:37:36.078Z,0.38
2018-03-04T06:38:39.083Z,0.38
2018-03-04T06:39:38.118Z,0.43
2018-03-04T06:40:39.807Z,0.35
2018-03-04T06:41:40.247Z,0.38
2018-03-04T06:42:40.827Z,0.41
2018-03-04T06:43:42.054Z,0.47
2018-03-04T06:44:43.525Z,0.48
2018-03-04T06:45:44.111Z,0.44
2018-03-04T06:46:46.657Z,0.43
2018-03-04T06:47:46.819Z,0.43
2018-03-04T06:48:47.585Z,0.4
2018-03-04T06:49:51.021Z,0.44
2018-03-04T06:50:50.775Z,0.41
2018-03-04T06:51:52.242Z,0.44
2018-03-04T06:52:53.236Z,0.41
2018-03-04T06:53:54.793Z,0.38
2018-03-04T06:54:54.722Z,0.41
2018-03-04T06:55:56.002Z,0.54
2018-03-04T06:56:57.760Z,0.47
2018-03-04T06:57:58.154Z,0.45
2018-03-04T06:58:59.474Z,0.45
2018-03-04T06:59:59.798Z,0.45
2018-03-04T07:01:01.674Z,0.47
2018-03-04T07:02:02.405Z,0.53
2018-03-04T07:03:03.537Z,0.5
2018-03-04T07:04:04.949Z,0.38
2018-03-04T07:05:04.313Z,0.44
2018-03-04T07:06:07.419Z,0.57
2018-03-04T07:07:07.036Z,0.5
2018-03-04T07:08:08.627Z,0.5
2018-03-04T07:09:09.131Z,0.54
2018-03-04T07:10:10.094Z,0.59
2018-03-04T07:11:11.113Z,0.54
2018-03-04T07:12:11.889Z,0.51
2018-03-04T07:13:12.963Z,0.51
2018-03-04T07:14:13.887Z,0.59
2018-03-04T07:15:14.464Z,0.54
2018-03-04T07:16:15.681Z,0.5
2018-03-04T07:17:17.269Z,0.51
2018-03-04T07:18:17.020Z,0.45
2018-03-04T07:19:18.676Z,0.53
2018-03-04T07:20:19.798Z,0.48
2018-03-04T07:21:20.159Z,0.43
2018-03-04T07:22:22.255Z,0.47
2018-03-04T07:23:21.838Z,0.47
2018-03-04T07:24:22.381Z,0.44
2018-03-04T07:25:23.934Z,0.4
2018-03-04T07:26:25.741Z,0.21
2018-03-04T07:27:27.161Z,0.29
2018-03-04T07:28:28.691Z,0.26
2018-03-04T07:29:29.499Z,0.21
2018-03-04T07:30:29.797Z,0.31
2018-03-04T07:31:30.887Z,0.26
2018-03-04T07:32:32.072Z,0.28
2018-03-04T07:33:31.917Z,0.28
2018-03-04T07:34:34.091Z,0.31
2018-03-04T07:35:35.129Z,0.31
2018-03-04T07:36:35.115Z,0.41
2018-03-04T07:37:36.424Z,0.31
2018-03-04T07:38:37.025Z,0.31
2018-03-04T07:39:39.359Z,0.15
2018-03-04T07:40:39.833Z,0.23
2018-03-04T07:41:41.151Z,0.25
2018-03-04T07:42:41.749Z,0.26
2018-03-04T07:43:43.752Z,0.29
2018-03-04T07:44:43.670Z,0.34
2018-03-04T07:45:46.127Z,0.43
2018-03-04T07:46:45.658Z,0.38
2018-03-04T07:48:52.436Z,0.26
2018-03-04T07:49:49.223Z,0.31
2018-03-04T07:50:49.868Z,0.26
2018-03-04T07:51:51.267Z,0.26
2018-03-04T07:53:25.997Z,0.28
2018-03-04T07:53:52.038Z,0.26
2018-03-04T07:54:55.872Z,0.37
2018-03-04T07:55:54.647Z,0.31
2018-03-04T07:56:55.284Z,0.32
2018-03-04T07:57:57.307Z,0.32
2018-03-04T07:58:57.278Z,0.32
2018-03-04T07:59:58.937Z,0.35
2018-03-04T08:00:59.292Z,0.41
2018-03-04T08:02:01.091Z,0.37
2018-03-04T08:03:02.928Z,0.38
2018-03-04T08:04:03.859Z,0.38
2018-03-04T08:05:03.697Z,0.35
2018-03-04T08:06:05.215Z,0.28
2018-03-04T08:07:25.671Z,0.26
2018-03-04T08:08:07.974Z,0.29
2018-03-04T08:09:07.680Z,0.41
2018-03-04T08:10:09.870Z,0.21
2018-03-04T08:11:09.539Z,0.18
2018-03-04T08:12:11.871Z,0.25
2018-03-04T08:13:13.413Z,0.15
2018-03-04T08:14:14.096Z,0.23
2018-03-04T08:15:16.076Z,0.15
2018-03-04T08:16:15.521Z,0.18
2018-03-04T08:17:16.393Z,0.21
2018-03-04T08:18:17.014Z,0.15
2018-03-04T08:19:19.370Z,0.15
2018-03-04T08:20:19.162Z,0.19
2018-03-04T08:21:22.297Z,0.19
2018-03-04T08:22:20.942Z,0.15
2018-03-04T08:23:21.639Z,0.15
2018-03-04T08:24:53.117Z,0.23
2018-03-04T08:25:23.654Z,0.22
2018-03-04T08:26:25.245Z,0.25
2018-03-04T08:27:29.137Z,0.21
2018-03-04T08:28:29.066Z,0.29
2018-03-04T08:29:28.385Z,0.25
2018-03-04T08:30:31.943Z,0.15
2018-03-04T08:31:31.009Z,0.21
2018-03-04T08:32:31.017Z,0.22
2018-03-04T08:33:33.207Z,0.15
2018-03-04T08:34:33.874Z,0.21
2018-03-04T08:35:35.131Z,0.16
2018-03-04T08:36:37.629Z,0.25
2018-03-04T08:37:36.323Z,0.19
2018-03-04T08:38:38.423Z,0.23
2018-03-04T08:39:39.341Z,0.15
2018-03-04T08:40:39.735Z,0.12
2018-03-04T08:41:41.641Z,0.18
2018-03-04T08:42:42.366Z,0.18
2018-03-04T08:43:42.653Z,0.15
2018-03-04T08:44:44.537Z,0.15
2018-03-04T08:45:44.692Z,0.19
2018-03-04T08:46:44.817Z,0.15
2018-03-04T08:47:46.870Z,0.31
2018-03-04T08:48:47.755Z,0.35
2018-03-04T08:49:47.780Z,0.35
2018-03-04T08:50:49.676Z,0.37
2018-03-04T08:51:50.569Z,0.34
2018-03-04T08:52:52.457Z,0.37
2018-03-04T08:53:53.726Z,0.32
2018-03-04T08:54:54.493Z,0.28
2018-03-04T08:55:54.417Z,0.26
2018-03-04T08:56:56.036Z,0.31
2018-03-04T08:57:58.661Z,0.31
2018-03-04T08:58:58.487Z,0.21
2018-03-04T08:59:59.341Z,0.4
2018-03-04T09:00:59.767Z,0.31
2018-03-04T09:02:00.211Z,0.28
2018-03-04T09:03:01.281Z,0.38
2018-03-04T09:04:02.325Z,0.19
2018-03-04T09:05:03.661Z,0.15
2018-03-04T09:06:19.815Z,0.15
2018-03-04T09:07:07.950Z,0.21
2018-03-04T09:08:29.518Z,0.18
2018-03-04T09:09:10.468Z,0.21
2018-03-04T09:10:08.323Z,0.19
2018-03-04T09:11:09.498Z,0.15
2018-03-04T09:12:25.947Z,0.19
2018-03-04T09:13:10.972Z,0.16
2018-03-04T09:14:12.033Z,0.25
2018-03-04T09:15:13.614Z,0.25
2018-03-04T09:16:15.093Z,0.22
2018-03-04T09:17:16.561Z,0.19
2018-03-04T09:18:18.130Z,0.15
2018-03-04T09:19:20.309Z,0.15
2018-03-04T09:21:54.208Z,0.23
2018-03-04T09:21:59.473Z,0.15
2018-03-04T09:22:58.732Z,0.18
2018-03-04T09:24:43.524Z,0.15
2018-03-04T09:25:01.029Z,0.15
2018-03-04T09:26:03.456Z,0.19
2018-03-04T09:27:04.780Z,0.15
2018-03-04T09:29:44.028Z,0.19
2018-03-04T09:29:47.280Z,0.23
2018-03-04T09:30:50.271Z,0.25
2018-03-04T09:31:51.003Z,0.22
2018-03-04T09:32:51.241Z,0.25
2018-03-04T09:33:51.760Z,0.21
2018-03-04T09:34:53.332Z,0.22
2018-03-04T09:37:09.001Z,0.31
2018-03-04T09:44:43.657Z,0.31
2018-03-04T09:51:00.262Z,0.23
2018-03-04T09:52:41.542Z,0.19
2018-03-04T10:00:09.861Z,0.26
2018-03-04T10:03:19.941Z,0.16
2018-03-04T10:05:09.733Z,0.25
2018-03-04T10:08:16.647Z,0.29
2018-03-04T10:09:44.710Z,0.25
2018-03-04T10:16:17.984Z,0.35
2018-03-04T10:30:18.670Z,0.31
2018-03-04T10:32:55.469Z,0.26
2018-03-04T10:34:36.290Z,0.38
2018-03-04T10:41:50.793Z,0.41
2018-03-04T10:46:37.545Z,0.34
2018-03-04T10:53:46.047Z,0.37
2018-03-04T11:14:06.461Z,0.21
2018-03-04T11:16:43.612Z,0.31
2018-03-04T11:18:02.012Z,0.26
2018-03-04T11:20:43.356Z,0.37
2018-03-04T11:24:32.356Z,0.31
2018-03-04T11:27:31.539Z,0.31
2018-03-04T11:32:00.052Z,0.31
2018-03-04T11:36:40.291Z,0.35
2018-03-04T11:39:15.443Z,0.26
2018-03-04T11:44:00.915Z,0.37
2018-03-04T11:46:58.547Z,0.41
2018-03-04T11:48:14.641Z,0.35
2018-03-04T11:51:19.280Z,0.32
2018-03-04T11:56:08.544Z,0.29
2018-03-04T12:02:16.417Z,0.26
2018-03-04T12:05:22.481Z,0.22
2018-03-04T12:07:06.161Z,0.31
2018-03-04T12:10:09.777Z,0.34
2018-03-04T12:13:28.738Z,0.31
2018-03-04T12:13:44.304Z,0.31
2018-03-04T12:14:35.002Z,0.29
2018-03-04T12:15:36.354Z,0.31
2018-03-04T12:16:36.801Z,0.21
2018-03-04T12:17:37.749Z,0.25
2018-03-04T12:18:38.983Z,0.26
2018-03-04T12:19:39.846Z,0.31
2018-03-04T12:20:40.937Z,0.29
2018-03-04T12:21:55.074Z,0.28
2018-03-04T12:22:42.882Z,0.23
2018-03-04T12:23:44.824Z,0.23
2018-03-04T12:24:44.567Z,0.21
2018-03-04T12:25:45.216Z,0.22
2018-03-04T12:26:46.880Z,0.22
2018-03-04T12:27:48.316Z,0.22
2018-03-04T12:28:48.293Z,0.26
2018-03-04T12:31:29.544Z,0.26
2018-03-04T12:31:34.439Z,0.34
2018-03-04T12:32:36.435Z,0.31
2018-03-04T12:33:38.418Z,0.35
2018-03-04T12:34:37.479Z,0.4
2018-03-04T12:35:37.745Z,0.34
2018-03-04T12:36:39.959Z,0.35
2018-03-04T12:37:39.471Z,0.29
2018-03-04T12:38:41.211Z,0.31
2018-03-04T12:39:41.697Z,0.31
2018-03-04T12:40:42.604Z,0.34
2018-03-04T12:41:43.594Z,0.29
2018-03-04T12:42:46.662Z,0.35
2018-03-04T12:43:46.649Z,0.4
2018-03-04T12:44:50.794Z,0.37
2018-03-04T12:45:47.644Z,0.31
2018-03-04T12:46:49.071Z,0.37
2018-03-04T12:47:48.919Z,0.41
2018-03-04T12:48:51.581Z,0.43
2018-03-04T12:49:51.337Z,0.43
2018-03-04T12:50:52.339Z,0.28
2018-03-04T12:51:54.455Z,0.28
2018-03-04T12:52:55.537Z,0.31
2018-03-04T12:55:59.657Z,0.26
2018-03-04T12:58:43.929Z,0.32
2018-03-04T13:00:08.896Z,0.34
2018-03-04T13:02:24.702Z,0.37
2018-03-04T13:02:34.912Z,0.32
2018-03-04T13:03:31.686Z,0.38
2018-03-04T13:04:31.188Z,0.38
2018-03-04T13:05:32.106Z,0.41
2018-03-04T13:06:33.703Z,0.4
2018-03-04T13:07:35.045Z,0.43
2018-03-04T13:08:37.278Z,0.41
2018-03-04T13:09:36.286Z,0.4
2018-03-04T13:10:38.720Z,0.38
2018-03-04T13:11:39.086Z,0.4
2018-03-04T13:12:41.185Z,0.43
2018-03-04T13:13:41.354Z,0.38
2018-03-04T13:14:41.812Z,0.38
2018-03-04T13:15:43.216Z,0.47
2018-03-04T13:16:45.274Z,0.43
2018-03-04T13:17:44.089Z,0.38
2018-03-04T13:18:45.496Z,0.38
2018-03-04T13:19:49.067Z,0.48
2018-03-04T13:20:49.198Z,0.43
2018-03-04T13:21:52.194Z,0.44
2018-03-04T13:22:51.005Z,0.41
2018-03-04T13:23:52.655Z,0.37
2018-03-04T13:24:52.783Z,0.43
2018-03-04T13:25:52.611Z,0.32
2018-03-04T13:26:54.170Z,0.32
2018-03-04T13:27:54.269Z,0.37
2018-03-04T13:28:56.329Z,0.32
2018-03-04T13:29:56.545Z,0.35
2018-03-04T13:30:58.891Z,0.41
2018-03-04T13:31:59.334Z,0.32
2018-03-04T13:32:59.788Z,0.38
2018-03-04T13:34:01.273Z,0.4
2018-03-04T13:35:02.077Z,0.43
2018-03-04T13:36:03.233Z,0.38
2018-03-04T13:37:03.624Z,0.38
2018-03-04T13:38:04.594Z,0.32
2018-03-04T13:39:06.206Z,0.43
2018-03-04T13:40:07.120Z,0.38
2018-03-04T13:41:10.086Z,0.41
2018-03-04T13:42:08.777Z,0.43
2018-03-04T13:43:11.055Z,0.38
2018-03-04T13:44:13.649Z,0.43
2018-03-04T13:45:10.886Z,0.37
2018-03-04T13:46:13.035Z,0.38
2018-03-04T13:47:14.475Z,0.35
2018-03-04T13:48:14.040Z,0.32
2018-03-04T13:49:15.309Z,0.35
2018-03-04T13:50:17.581Z,0.26
2018-03-04T13:51:20.154Z,0.32
2018-03-04T13:52:19.393Z,0.38
2018-03-04T13:53:19.626Z,0.38
2018-03-04T13:54:20.867Z,0.31
2018-03-04T13:55:56.575Z,0.26
2018-03-04T13:56:24.851Z,0.32
2018-03-04T13:57:24.088Z,0.28
2018-03-04T13:58:24.278Z,0.29
2018-03-04T13:59:25.919Z,0.35
2018-03-04T14:00:28.473Z,0.35
2018-03-04T14:01:29.672Z,0.35
2018-03-04T14:02:28.587Z,0.4
2018-03-04T14:03:31.409Z,0.35
2018-03-04T14:04:31.234Z,0.43
2018-03-04T14:05:32.089Z,0.37
2018-03-04T14:06:32.408Z,0.43
2018-03-04T14:07:33.653Z,0.43
2018-03-04T14:08:36.253Z,0.43
2018-03-04T14:09:36.199Z,0.4
2018-03-04T14:10:36.079Z,0.43
2018-03-04T14:11:38.489Z,0.41
2018-03-04T14:12:37.824Z,0.38
2018-03-04T14:13:41.013Z,0.4
2018-03-04T14:14:41.277Z,0.38
2018-03-04T14:15:41.268Z,0.41
2018-03-04T14:16:44.803Z,0.38
2018-03-04T14:18:45.255Z,0.43
2018-03-04T14:18:54.015Z,0.38
2018-03-04T14:19:52.008Z,0.38
2018-03-04T14:21:27.154Z,0.4
2018-03-04T14:21:57.199Z,0.37
2018-03-04T14:22:55.866Z,0.41
2018-03-04T14:23:55.944Z,0.43
2018-03-04T14:24:57.840Z,0.38
2018-03-04T14:26:36.041Z,0.44
2018-03-04T14:27:00.156Z,0.37
2018-03-04T14:27:59.719Z,0.4
2018-03-04T14:29:01.128Z,0.31
2018-03-04T14:30:00.861Z,0.31
2018-03-04T14:31:03.218Z,0.34
2018-03-04T14:32:04.658Z,0.38
2018-03-04T14:33:06.703Z,0.38
2018-03-04T14:35:23.104Z,0.38
2018-03-04T14:35:26.374Z,0.34
2018-03-04T14:36:28.806Z,0.38
2018-03-04T14:37:29.755Z,0.41
2018-03-04T14:38:32.937Z,0.28
2018-03-04T14:39:34.662Z,0.41
2018-03-04T14:40:33.176Z,0.41
2018-03-04T14:41:33.752Z,0.41
2018-03-04T14:42:39.336Z,0.37
2018-03-04T14:43:37.285Z,0.43
2018-03-04T14:44:37.440Z,0.29
2018-03-04T14:45:43.253Z,0.35
2018-03-04T14:46:39.406Z,0.4
2018-03-04T14:47:41.361Z,0.38
2018-03-04T14:48:44.216Z,0.43
2018-03-04T14:49:42.461Z,0.43
2018-03-04T14:50:43.367Z,0.38
2018-03-04T14:51:44.574Z,0.35
2018-03-04T14:52:45.396Z,0.43
2018-03-04T14:56:21.114Z,0.43
2018-03-04T14:56:59.562Z,0.38
2018-03-04T14:57:58.572Z,0.35
2018-03-04T14:58:59.997Z,0.43
2018-03-04T14:59:58.820Z,0.41
2018-03-04T15:00:59.319Z,0.43
2018-03-04T15:02:00.607Z,0.35
2018-03-04T15:03:18.314Z,0.28
2018-03-04T15:04:04.268Z,0.37
2018-03-04T15:05:07.854Z,0.23
2018-03-04T15:06:05.457Z,0.29
2018-03-04T15:07:06.250Z,0.26
2018-03-04T15:08:08.719Z,0.34
2018-03-04T15:09:07.691Z,0.35
2018-03-04T15:10:07.823Z,0.32
2018-03-04T15:11:20.702Z,0.38
2018-03-04T15:12:10.011Z,0.34
2018-03-04T15:13:11.176Z,0.23
2018-03-04T15:14:11.950Z,0.35
2018-03-04T15:15:14.358Z,0.32
2018-03-04T15:16:14.735Z,0.29
2018-03-04T15:17:17.735Z,0.31
2018-03-04T15:18:17.572Z,0.26
2018-03-04T15:19:18.711Z,0.26
2018-03-04T15:20:19.643Z,0.32
2018-03-04T15:21:20.440Z,0.34
2018-03-04T15:22:22.014Z,0.38
2018-03-04T15:23:21.849Z,0.31
2018-03-04T15:24:22.597Z,0.31
2018-03-04T15:25:23.023Z,0.31
2018-03-04T15:26:27.367Z,0.29
2018-03-04T15:27:25.605Z,0.34
2018-03-04T15:28:26.882Z,0.43
2018-03-04T15:29:28.345Z,0.34
2018-03-04T15:30:29.884Z,0.34
2018-03-04T15:31:30.747Z,0.29
2018-03-04T15:32:30.215Z,0.23
2018-03-04T15:33:34.911Z,0.21
2018-03-04T15:34:33.882Z,0.28
2018-03-04T15:35:33.044Z,0.31
2018-03-04T15:36:34.207Z,0.12
2018-03-04T15:37:35.978Z,0.26
2018-03-04T15:38:36.649Z,0.29
2018-03-04T15:39:42.138Z,0.26
2018-03-04T15:40:40.282Z,0.28
2018-03-04T15:41:41.149Z,0.25
2018-03-04T15:42:40.492Z,0.31
2018-03-04T15:43:43.185Z,0.31
2018-03-04T15:44:43.710Z,0.26